sensor_id;sensor_type;location;lat;lon;timestamp;P1;durP1;ratioP1;P2;durP2;ratioP2
28311;SDS011;15572;48.810;9.148;2024-03-02T00:03:12;18.43;;;11.90;;
28311;SDS011;15572;48.810;9.148;2024-03-02T00:08:09;16.27;;;11.30;;
28311;SDS011;15572;48.810;9.148;2024-03-02T00:13:05;18.60;;;11.70;;
28311;SDS011;15572;48.810;9.148;2024-03-02T00:18:04;17.60;;;11.10;;
28311;SDS011;15572;48.810;9.148;2024-03-02T00:23:02;17.37;;;10.77;;
28311;SDS011;15572;48.810;9.148;2024-03-02T00:28:00;17.73;;;11.87;;
28311;SDS011;15572;48.810;9.148;2024-03-02T00:32:56;17.20;;;11.47;;
28311;SDS011;15572;48.810;9.148;2024-03-02T00:37:55;20.43;;;11.73;;
28311;SDS011;15572;48.810;9.148;2024-03-02T00:42:52;18.60;;;12.07;;
28311;SDS011;15572;48.810;9.148;2024-03-02T00:47:48;17.30;;;11.50;;
28311;SDS011;15572;48.810;9.148;2024-03-02T00:52:44;21.33;;;12.93;;
28311;SDS011;15572;48.810;9.148;2024-03-02T00:57:44;17.50;;;11.50;;
28311;SDS011;15572;48.810;9.148;2024-03-02T01:02:41;16.90;;;11.40;;
28311;SDS011;15572;48.810;9.148;2024-03-02T01:07:39;19.80;;;11.70;;
28311;SDS011;15572;48.810;9.148;2024-03-02T01:12:35;20.10;;;12.10;;
28311;SDS011;15572;48.810;9.148;2024-03-02T01:17:33;19.73;;;12.97;;
28311;SDS011;15572;48.810;9.148;2024-03-02T01:22:29;18.23;;;12.90;;
28311;SDS011;15572;48.810;9.148;2024-03-02T01:27:26;17.67;;;12.60;;
28311;SDS011;15572;48.810;9.148;2024-03-02T01:32:22;18.63;;;12.57;;
28311;SDS011;15572;48.810;9.148;2024-03-02T01:37:20;17.17;;;10.13;;
28311;SDS011;15572;48.810;9.148;2024-03-02T01:42:16;15.23;;;10.10;;
28311;SDS011;15572;48.810;9.148;2024-03-02T01:47:12;14.97;;;9.97;;
28311;SDS011;15572;48.810;9.148;2024-03-02T01:52:10;14.60;;;9.77;;
28311;SDS011;15572;48.810;9.148;2024-03-02T01:57:08;16.50;;;10.40;;
28311;SDS011;15572;48.810;9.148;2024-03-02T02:02:05;17.10;;;10.37;;
28311;SDS011;15572;48.810;9.148;2024-03-02T02:07:01;16.03;;;10.37;;
28311;SDS011;15572;48.810;9.148;2024-03-02T02:11:58;14.60;;;10.17;;
28311;SDS011;15572;48.810;9.148;2024-03-02T02:16:56;15.27;;;10.57;;
28311;SDS011;15572;48.810;9.148;2024-03-02T02:21:54;14.03;;;10.10;;
28311;SDS011;15572;48.810;9.148;2024-03-02T02:26:50;17.03;;;10.23;;
28311;SDS011;15572;48.810;9.148;2024-03-02T02:31:46;14.27;;;10.50;;
28311;SDS011;15572;48.810;9.148;2024-03-02T02:36:43;14.57;;;10.13;;
28311;SDS011;15572;48.810;9.148;2024-03-02T02:41:41;17.57;;;11.83;;
28311;SDS011;15572;48.810;9.148;2024-03-02T02:46:37;16.23;;;10.93;;
28311;SDS011;15572;48.810;9.148;2024-03-02T02:51:34;19.70;;;12.73;;
28311;SDS011;15572;48.810;9.148;2024-03-02T02:56:30;18.90;;;12.50;;
28311;SDS011;15572;48.810;9.148;2024-03-02T03:01:28;19.70;;;12.93;;
28311;SDS011;15572;48.810;9.148;2024-03-02T03:06:24;16.77;;;10.97;;
28311;SDS011;15572;48.810;9.148;2024-03-02T03:11:20;16.93;;;11.07;;
28311;SDS011;15572;48.810;9.148;2024-03-02T03:16:17;19.27;;;11.90;;
28311;SDS011;15572;48.810;9.148;2024-03-02T03:21:15;18.67;;;12.63;;
28311;SDS011;15572;48.810;9.148;2024-03-02T03:26:11;20.57;;;12.23;;
28311;SDS011;15572;48.810;9.148;2024-03-02T03:31:08;18.83;;;12.40;;
28311;SDS011;15572;48.810;9.148;2024-03-02T03:36:05;18.97;;;12.10;;
28311;SDS011;15572;48.810;9.148;2024-03-02T03:41:03;17.17;;;11.53;;
28311;SDS011;15572;48.810;9.148;2024-03-02T03:46:00;20.73;;;13.53;;
28311;SDS011;15572;48.810;9.148;2024-03-02T03:50:57;20.30;;;12.70;;
28311;SDS011;15572;48.810;9.148;2024-03-02T03:55:53;23.67;;;13.67;;
28311;SDS011;15572;48.810;9.148;2024-03-02T04:00:51;21.33;;;12.60;;
28311;SDS011;15572;48.810;9.148;2024-03-02T04:05:47;20.30;;;12.70;;
28311;SDS011;15572;48.810;9.148;2024-03-02T04:10:44;20.67;;;12.43;;
28311;SDS011;15572;48.810;9.148;2024-03-02T04:15:40;20.23;;;12.70;;
28311;SDS011;15572;48.810;9.148;2024-03-02T04:20:38;19.87;;;13.20;;
28311;SDS011;15572;48.810;9.148;2024-03-02T04:25:34;21.37;;;13.03;;
28311;SDS011;15572;48.810;9.148;2024-03-02T04:30:31;21.07;;;12.90;;
28311;SDS011;15572;48.810;9.148;2024-03-02T04:35:27;19.77;;;12.37;;
28311;SDS011;15572;48.810;9.148;2024-03-02T04:40:25;18.53;;;12.10;;
28311;SDS011;15572;48.810;9.148;2024-03-02T04:45:21;18.47;;;11.17;;
28311;SDS011;15572;48.810;9.148;2024-03-02T04:50:19;18.57;;;11.30;;
28311;SDS011;15572;48.810;9.148;2024-03-02T04:55:16;17.40;;;10.90;;
28311;SDS011;15572;48.810;9.148;2024-03-02T05:00:46;19.87;;;10.40;;
28311;SDS011;15572;48.810;9.148;2024-03-02T05:05:43;17.90;;;10.90;;
28311;SDS011;15572;48.810;9.148;2024-03-02T05:10:39;20.77;;;12.23;;
28311;SDS011;15572;48.810;9.148;2024-03-02T05:15:36;19.00;;;12.37;;
28311;SDS011;15572;48.810;9.148;2024-03-02T05:20:33;17.83;;;11.37;;
28311;SDS011;15572;48.810;9.148;2024-03-02T05:25:30;21.90;;;12.70;;
28311;SDS011;15572;48.810;9.148;2024-03-02T05:30:27;19.03;;;11.63;;
28311;SDS011;15572;48.810;9.148;2024-03-02T05:35:23;22.13;;;12.37;;
28311;SDS011;15572;48.810;9.148;2024-03-02T05:40:21;20.57;;;13.00;;
28311;SDS011;15572;48.810;9.148;2024-03-02T05:45:17;22.90;;;13.73;;
28311;SDS011;15572;48.810;9.148;2024-03-02T05:50:14;27.83;;;14.50;;
28311;SDS011;15572;48.810;9.148;2024-03-02T05:55:10;23.97;;;14.13;;
28311;SDS011;15572;48.810;9.148;2024-03-02T06:00:08;27.40;;;15.60;;
28311;SDS011;15572;48.810;9.148;2024-03-02T06:05:06;21.87;;;14.47;;
28311;SDS011;15572;48.810;9.148;2024-03-02T06:10:03;24.17;;;14.33;;
28311;SDS011;15572;48.810;9.148;2024-03-02T06:15:02;21.60;;;13.77;;
28311;SDS011;15572;48.810;9.148;2024-03-02T06:20:01;23.23;;;13.37;;
28311;SDS011;15572;48.810;9.148;2024-03-02T06:24:57;22.37;;;13.40;;
28311;SDS011;15572;48.810;9.148;2024-03-02T06:29:54;21.07;;;13.27;;
28311;SDS011;15572;48.810;9.148;2024-03-02T06:34:50;22.50;;;13.50;;
28311;SDS011;15572;48.810;9.148;2024-03-02T06:39:48;27.30;;;13.93;;
28311;SDS011;15572;48.810;9.148;2024-03-02T06:44:44;23.80;;;13.33;;
28311;SDS011;15572;48.810;9.148;2024-03-02T06:49:41;22.17;;;13.93;;
28311;SDS011;15572;48.810;9.148;2024-03-02T06:54:37;21.93;;;13.23;;
28311;SDS011;15572;48.810;9.148;2024-03-02T06:59:35;26.37;;;15.43;;
28311;SDS011;15572;48.810;9.148;2024-03-02T07:04:31;24.27;;;14.93;;
28311;SDS011;15572;48.810;9.148;2024-03-02T07:09:28;24.30;;;14.67;;
28311;SDS011;15572;48.810;9.148;2024-03-02T07:14:24;24.73;;;14.00;;
28311;SDS011;15572;48.810;9.148;2024-03-02T07:19:42;23.50;;;13.97;;
28311;SDS011;15572;48.810;9.148;2024-03-02T07:24:39;23.77;;;11.63;;
28311;SDS011;15572;48.810;9.148;2024-03-02T07:29:37;18.83;;;11.03;;
28311;SDS011;15572;48.810;9.148;2024-03-02T07:34:33;16.73;;;10.27;;
28311;SDS011;15572;48.810;9.148;2024-03-02T07:39:31;16.63;;;10.77;;
28311;SDS011;15572;48.810;9.148;2024-03-02T07:44:28;16.97;;;10.43;;
28311;SDS011;15572;48.810;9.148;2024-03-02T07:49:24;15.00;;;9.47;;
28311;SDS011;15572;48.810;9.148;2024-03-02T07:54:20;14.53;;;9.43;;
28311;SDS011;15572;48.810;9.148;2024-03-02T07:59:18;13.53;;;9.20;;
28311;SDS011;15572;48.810;9.148;2024-03-02T08:04:16;13.47;;;8.87;;
28311;SDS011;15572;48.810;9.148;2024-03-02T08:09:13;13.67;;;8.63;;
28311;SDS011;15572;48.810;9.148;2024-03-02T08:14:09;13.37;;;8.27;;
28311;SDS011;15572;48.810;9.148;2024-03-02T08:19:07;12.00;;;7.97;;
28311;SDS011;15572;48.810;9.148;2024-03-02T08:24:05;12.93;;;8.57;;
28311;SDS011;15572;48.810;9.148;2024-03-02T08:29:01;13.20;;;8.40;;
28311;SDS011;15572;48.810;9.148;2024-03-02T08:33:58;14.30;;;9.83;;
28311;SDS011;15572;48.810;9.148;2024-03-02T08:38:56;16.93;;;11.37;;
28311;SDS011;15572;48.810;9.148;2024-03-02T08:43:53;16.03;;;10.87;;
28311;SDS011;15572;48.810;9.148;2024-03-02T08:48:49;18.07;;;11.47;;
28311;SDS011;15572;48.810;9.148;2024-03-02T08:53:46;13.97;;;9.83;;
28311;SDS011;15572;48.810;9.148;2024-03-02T08:58:44;11.37;;;7.57;;
28311;SDS011;15572;48.810;9.148;2024-03-02T09:03:40;12.47;;;7.73;;
28311;SDS011;15572;48.810;9.148;2024-03-02T09:08:39;10.80;;;7.30;;
28311;SDS011;15572;48.810;9.148;2024-03-02T09:13:35;11.67;;;6.97;;
28311;SDS011;15572;48.810;9.148;2024-03-02T09:18:33;8.90;;;6.53;;
28311;SDS011;15572;48.810;9.148;2024-03-02T09:23:30;11.63;;;6.30;;
28311;SDS011;15572;48.810;9.148;2024-03-02T09:28:26;9.13;;;6.07;;
28311;SDS011;15572;48.810;9.148;2024-03-02T09:33:22;7.83;;;6.07;;
28311;SDS011;15572;48.810;9.148;2024-03-02T09:38:20;10.83;;;5.30;;
28311;SDS011;15572;48.810;9.148;2024-03-02T09:43:17;7.90;;;5.70;;
28311;SDS011;15572;48.810;9.148;2024-03-02T09:48:13;8.77;;;5.20;;
28311;SDS011;15572;48.810;9.148;2024-03-02T09:53:13;9.00;;;5.47;;
28311;SDS011;15572;48.810;9.148;2024-03-02T09:58:12;7.30;;;5.13;;
28311;SDS011;15572;48.810;9.148;2024-03-02T10:03:11;7.53;;;5.07;;
28311;SDS011;15572;48.810;9.148;2024-03-02T10:08:08;7.93;;;5.47;;
28311;SDS011;15572;48.810;9.148;2024-03-02T10:13:04;7.43;;;4.50;;
28311;SDS011;15572;48.810;9.148;2024-03-02T10:18:03;6.30;;;4.33;;
28311;SDS011;15572;48.810;9.148;2024-03-02T10:23:09;6.60;;;4.07;;
28311;SDS011;15572;48.810;9.148;2024-03-02T10:28:06;7.17;;;5.33;;
28311;SDS011;15572;48.810;9.148;2024-03-02T10:33:05;7.23;;;5.63;;
28311;SDS011;15572;48.810;9.148;2024-03-02T10:38:03;7.47;;;6.07;;
28311;SDS011;15572;48.810;9.148;2024-03-02T10:43:00;7.50;;;5.80;;
28311;SDS011;15572;48.810;9.148;2024-03-02T10:47:57;7.60;;;5.13;;
28311;SDS011;15572;48.810;9.148;2024-03-02T10:52:57;6.93;;;4.90;;
28311;SDS011;15572;48.810;9.148;2024-03-02T10:57:54;7.80;;;5.37;;
28311;SDS011;15572;48.810;9.148;2024-03-02T11:02:52;7.60;;;4.90;;
28311;SDS011;15572;48.810;9.148;2024-03-02T11:07:52;8.00;;;5.73;;
28311;SDS011;15572;48.810;9.148;2024-03-02T11:12:55;7.13;;;4.97;;
28311;SDS011;15572;48.810;9.148;2024-03-02T11:17:55;6.47;;;4.60;;
28311;SDS011;15572;48.810;9.148;2024-03-02T11:22:53;7.10;;;4.83;;
28311;SDS011;15572;48.810;9.148;2024-03-02T11:28:00;5.40;;;4.40;;
28311;SDS011;15572;48.810;9.148;2024-03-02T11:32:58;4.53;;;3.90;;
28311;SDS011;15572;48.810;9.148;2024-03-02T11:37:54;4.40;;;3.53;;
28311;SDS011;15572;48.810;9.148;2024-03-02T11:42:53;3.87;;;3.23;;
28311;SDS011;15572;48.810;9.148;2024-03-02T11:47:52;2.80;;;2.50;;
28311;SDS011;15572;48.810;9.148;2024-03-02T11:52:50;3.47;;;2.17;;
28311;SDS011;15572;48.810;9.148;2024-03-02T11:57:47;2.77;;;2.20;;
28311;SDS011;15572;48.810;9.148;2024-03-02T12:02:45;2.17;;;1.80;;
28311;SDS011;15572;48.810;9.148;2024-03-02T12:07:45;2.30;;;1.97;;
28311;SDS011;15572;48.810;9.148;2024-03-02T12:12:42;2.53;;;1.80;;
28311;SDS011;15572;48.810;9.148;2024-03-02T12:17:38;1.27;;;1.17;;
28311;SDS011;15572;48.810;9.148;2024-03-02T12:22:34;3.03;;;1.23;;
28311;SDS011;15572;48.810;9.148;2024-03-02T12:27:32;1.50;;;1.40;;
28311;SDS011;15572;48.810;9.148;2024-03-02T12:32:29;1.50;;;1.20;;
28311;SDS011;15572;48.810;9.148;2024-03-02T12:37:26;1.00;;;0.90;;
28311;SDS011;15572;48.810;9.148;2024-03-02T12:42:23;2.83;;;0.80;;
28311;SDS011;15572;48.810;9.148;2024-03-02T12:47:21;1.10;;;0.90;;
28311;SDS011;15572;48.810;9.148;2024-03-02T12:52:18;2.45;;;0.80;;
28311;SDS011;15572;48.810;9.148;2024-03-02T12:57:16;1.17;;;1.00;;
28311;SDS011;15572;48.810;9.148;2024-03-02T13:02:16;1.00;;;0.80;;
28311;SDS011;15572;48.810;9.148;2024-03-02T13:07:14;1.40;;;1.13;;
28311;SDS011;15572;48.810;9.148;2024-03-02T13:12:11;1.20;;;1.10;;
28311;SDS011;15572;48.810;9.148;2024-03-02T13:17:07;1.98;;;1.10;;
28311;SDS011;15572;48.810;9.148;2024-03-02T13:22:04;1.13;;;1.02;;
28311;SDS011;15572;48.810;9.148;2024-03-02T13:27:02;4.05;;;1.23;;
28311;SDS011;15572;48.810;9.148;2024-03-02T13:31:59;1.00;;;1.00;;
28311;SDS011;15572;48.810;9.148;2024-03-02T13:36:55;1.55;;;1.20;;
28311;SDS011;15572;48.810;9.148;2024-03-02T13:41:51;1.42;;;1.23;;
28311;SDS011;15572;48.810;9.148;2024-03-02T13:46:53;1.70;;;1.60;;
28311;SDS011;15572;48.810;9.148;2024-03-02T13:51:50;2.67;;;1.50;;
28311;SDS011;15572;48.810;9.148;2024-03-02T13:56:46;2.78;;;1.23;;
28311;SDS011;15572;48.810;9.148;2024-03-02T14:01:43;1.40;;;1.30;;
28311;SDS011;15572;48.810;9.148;2024-03-02T14:06:41;1.90;;;1.30;;
28311;SDS011;15572;48.810;9.148;2024-03-02T14:11:38;2.25;;;1.20;;
28311;SDS011;15572;48.810;9.148;2024-03-02T14:16:35;1.48;;;1.27;;
28311;SDS011;15572;48.810;9.148;2024-03-02T14:21:31;2.08;;;1.40;;
28311;SDS011;15572;48.810;9.148;2024-03-02T14:26:32;1.33;;;1.23;;
28311;SDS011;15572;48.810;9.148;2024-03-02T14:31:28;2.10;;;1.15;;
28311;SDS011;15572;48.810;9.148;2024-03-02T14:36:26;1.77;;;1.35;;
28311;SDS011;15572;48.810;9.148;2024-03-02T14:41:23;2.45;;;1.13;;
28311;SDS011;15572;48.810;9.148;2024-03-02T14:46:20;1.40;;;1.30;;
28311;SDS011;15572;48.810;9.148;2024-03-02T14:51:17;1.52;;;1.20;;
28311;SDS011;15572;48.810;9.148;2024-03-02T14:56:13;1.20;;;1.10;;
28311;SDS011;15572;48.810;9.148;2024-03-02T15:01:10;1.30;;;1.15;;
28311;SDS011;15572;48.810;9.148;2024-03-02T15:06:08;1.25;;;1.08;;
28311;SDS011;15572;48.810;9.148;2024-03-02T15:11:04;1.77;;;1.38;;
28311;SDS011;15572;48.810;9.148;2024-03-02T15:16:01;1.17;;;1.02;;
28311;SDS011;15572;48.810;9.148;2024-03-02T15:20:58;1.73;;;1.27;;
28311;SDS011;15572;48.810;9.148;2024-03-02T15:25:55;1.38;;;1.00;;
28311;SDS011;15572;48.810;9.148;2024-03-02T15:30:52;1.33;;;0.95;;
28311;SDS011;15572;48.810;9.148;2024-03-02T15:35:49;1.45;;;1.20;;
28311;SDS011;15572;48.810;9.148;2024-03-02T15:40:45;1.43;;;1.17;;
28311;SDS011;15572;48.810;9.148;2024-03-02T15:45:43;1.40;;;1.30;;
28311;SDS011;15572;48.810;9.148;2024-03-02T15:50:40;1.55;;;1.45;;
28311;SDS011;15572;48.810;9.148;2024-03-02T15:55:36;2.33;;;1.30;;
28311;SDS011;15572;48.810;9.148;2024-03-02T16:00:32;1.63;;;1.30;;
28311;SDS011;15572;48.810;9.148;2024-03-02T16:05:31;2.23;;;1.60;;
28311;SDS011;15572;48.810;9.148;2024-03-02T16:10:28;1.60;;;1.40;;
28311;SDS011;15572;48.810;9.148;2024-03-02T16:15:24;1.70;;;1.50;;
28311;SDS011;15572;48.810;9.148;2024-03-02T16:20:20;2.20;;;1.90;;
28311;SDS011;15572;48.810;9.148;2024-03-02T16:25:18;2.03;;;1.77;;
28311;SDS011;15572;48.810;9.148;2024-03-02T16:30:15;2.00;;;1.50;;
28311;SDS011;15572;48.810;9.148;2024-03-02T16:35:13;2.43;;;1.80;;
28311;SDS011;15572;48.810;9.148;2024-03-02T16:40:11;2.53;;;1.70;;
28311;SDS011;15572;48.810;9.148;2024-03-02T16:45:10;2.30;;;1.90;;
28311;SDS011;15572;48.810;9.148;2024-03-02T16:50:06;3.63;;;1.90;;
28311;SDS011;15572;48.810;9.148;2024-03-02T16:55:06;2.70;;;2.23;;
28311;SDS011;15572;48.810;9.148;2024-03-02T17:00:03;4.00;;;2.90;;
28311;SDS011;15572;48.810;9.148;2024-03-02T17:05:04;3.90;;;3.30;;
28311;SDS011;15572;48.810;9.148;2024-03-02T17:10:01;3.53;;;3.10;;
28311;SDS011;15572;48.810;9.148;2024-03-02T17:14:59;6.10;;;4.90;;
28311;SDS011;15572;48.810;9.148;2024-03-02T17:19:55;6.90;;;4.03;;
28311;SDS011;15572;48.810;9.148;2024-03-02T17:24:53;4.63;;;3.70;;
28311;SDS011;15572;48.810;9.148;2024-03-02T17:29:51;6.83;;;4.27;;
28311;SDS011;15572;48.810;9.148;2024-03-02T17:34:47;6.07;;;3.80;;
28311;SDS011;15572;48.810;9.148;2024-03-02T17:39:43;7.60;;;4.30;;
28311;SDS011;15572;48.810;9.148;2024-03-02T17:44:41;7.03;;;5.37;;
28311;SDS011;15572;48.810;9.148;2024-03-02T17:49:38;7.40;;;4.63;;
28311;SDS011;15572;48.810;9.148;2024-03-02T17:54:34;8.70;;;4.50;;
28311;SDS011;15572;48.810;9.148;2024-03-02T17:59:30;9.17;;;5.73;;
28311;SDS011;15572;48.810;9.148;2024-03-02T18:04:28;7.60;;;5.70;;
28311;SDS011;15572;48.810;9.148;2024-03-02T18:09:25;10.47;;;5.87;;
28311;SDS011;15572;48.810;9.148;2024-03-02T18:14:21;7.67;;;6.10;;
28311;SDS011;15572;48.810;9.148;2024-03-02T18:19:17;12.83;;;6.73;;
28311;SDS011;15572;48.810;9.148;2024-03-02T18:24:15;12.73;;;8.07;;
28311;SDS011;15572;48.810;9.148;2024-03-02T18:29:12;11.73;;;7.33;;
28311;SDS011;15572;48.810;9.148;2024-03-02T18:34:11;11.97;;;7.63;;
28311;SDS011;15572;48.810;9.148;2024-03-02T18:39:08;13.60;;;9.43;;
28311;SDS011;15572;48.810;9.148;2024-03-02T18:44:06;17.03;;;10.43;;
28311;SDS011;15572;48.810;9.148;2024-03-02T18:49:02;17.87;;;10.87;;
28311;SDS011;15572;48.810;9.148;2024-03-02T18:53:58;18.43;;;11.50;;
28311;SDS011;15572;48.810;9.148;2024-03-02T18:58:55;18.50;;;12.33;;
28311;SDS011;15572;48.810;9.148;2024-03-02T19:03:53;19.77;;;12.37;;
28311;SDS011;15572;48.810;9.148;2024-03-02T19:08:49;21.70;;;13.40;;
28311;SDS011;15572;48.810;9.148;2024-03-02T19:13:45;19.83;;;12.27;;
28311;SDS011;15572;48.810;9.148;2024-03-02T19:18:42;21.83;;;13.40;;
28311;SDS011;15572;48.810;9.148;2024-03-02T19:23:40;18.17;;;12.17;;
28311;SDS011;15572;48.810;9.148;2024-03-02T19:28:36;19.60;;;13.03;;
28311;SDS011;15572;48.810;9.148;2024-03-02T19:33:33;20.00;;;13.33;;
28311;SDS011;15572;48.810;9.148;2024-03-02T19:38:29;19.97;;;13.00;;
28311;SDS011;15572;48.810;9.148;2024-03-02T19:43:30;20.10;;;13.17;;
28311;SDS011;15572;48.810;9.148;2024-03-02T19:48:26;26.00;;;15.40;;
28311;SDS011;15572;48.810;9.148;2024-03-02T19:53:23;20.67;;;13.50;;
28311;SDS011;15572;48.810;9.148;2024-03-02T19:58:20;25.00;;;15.67;;
28311;SDS011;15572;48.810;9.148;2024-03-02T20:03:18;24.77;;;14.27;;
28311;SDS011;15572;48.810;9.148;2024-03-02T20:08:15;23.37;;;14.53;;
28311;SDS011;15572;48.810;9.148;2024-03-02T20:13:11;22.77;;;14.87;;
28311;SDS011;15572;48.810;9.148;2024-03-02T20:18:07;22.90;;;14.63;;
28311;SDS011;15572;48.810;9.148;2024-03-02T20:23:06;24.77;;;15.30;;
28311;SDS011;15572;48.810;9.148;2024-03-02T20:28:02;24.20;;;15.20;;
28311;SDS011;15572;48.810;9.148;2024-03-02T20:32:59;26.73;;;15.83;;
28311;SDS011;15572;48.810;9.148;2024-03-02T20:37:55;25.97;;;15.83;;
28311;SDS011;15572;48.810;9.148;2024-03-02T20:42:53;29.53;;;16.30;;
28311;SDS011;15572;48.810;9.148;2024-03-02T20:47:49;29.60;;;17.63;;
28311;SDS011;15572;48.810;9.148;2024-03-02T20:52:46;29.37;;;17.37;;
28311;SDS011;15572;48.810;9.148;2024-03-02T20:57:42;33.47;;;18.03;;
28311;SDS011;15572;48.810;9.148;2024-03-02T21:02:40;29.50;;;17.33;;
28311;SDS011;15572;48.810;9.148;2024-03-02T21:07:37;26.40;;;17.37;;
28311;SDS011;15572;48.810;9.148;2024-03-02T21:12:33;26.60;;;16.93;;
28311;SDS011;15572;48.810;9.148;2024-03-02T21:17:30;27.80;;;16.77;;
28311;SDS011;15572;48.810;9.148;2024-03-02T21:22:27;26.73;;;16.63;;
28311;SDS011;15572;48.810;9.148;2024-03-02T21:27:24;29.33;;;17.37;;
28311;SDS011;15572;48.810;9.148;2024-03-02T21:32:21;30.70;;;18.70;;
28311;SDS011;15572;48.810;9.148;2024-03-02T21:37:17;32.43;;;18.13;;
28311;SDS011;15572;48.810;9.148;2024-03-02T21:42:15;35.03;;;19.20;;
28311;SDS011;15572;48.810;9.148;2024-03-02T21:47:11;28.70;;;17.33;;
28311;SDS011;15572;48.810;9.148;2024-03-02T21:52:09;28.47;;;18.37;;
28311;SDS011;15572;48.810;9.148;2024-03-02T21:57:06;35.77;;;19.77;;
28311;SDS011;15572;48.810;9.148;2024-03-02T22:02:08;34.07;;;19.53;;
28311;SDS011;15572;48.810;9.148;2024-03-02T22:07:04;31.97;;;19.53;;
28311;SDS011;15572;48.810;9.148;2024-03-02T22:12:00;33.47;;;18.93;;
28311;SDS011;15572;48.810;9.148;2024-03-02T22:16:57;33.90;;;19.70;;
28311;SDS011;15572;48.810;9.148;2024-03-02T22:21:55;32.77;;;19.63;;
28311;SDS011;15572;48.810;9.148;2024-03-02T22:26:51;34.27;;;20.47;;
28311;SDS011;15572;48.810;9.148;2024-03-02T22:31:48;34.57;;;20.17;;
28311;SDS011;15572;48.810;9.148;2024-03-02T22:36:44;35.23;;;20.50;;
28311;SDS011;15572;48.810;9.148;2024-03-02T22:41:42;40.33;;;21.00;;
28311;SDS011;15572;48.810;9.148;2024-03-02T22:46:38;36.67;;;21.97;;
28311;SDS011;15572;48.810;9.148;2024-03-02T22:51:34;36.53;;;22.20;;
28311;SDS011;15572;48.810;9.148;2024-03-02T22:56:31;37.60;;;21.83;;
28311;SDS011;15572;48.810;9.148;2024-03-02T23:01:29;39.50;;;22.13;;
28311;SDS011;15572;48.810;9.148;2024-03-02T23:06:25;38.97;;;21.60;;
28311;SDS011;15572;48.810;9.148;2024-03-02T23:11:22;37.67;;;21.63;;
28311;SDS011;15572;48.810;9.148;2024-03-02T23:16:18;39.30;;;22.53;;
28311;SDS011;15572;48.810;9.148;2024-03-02T23:21:16;38.83;;;22.87;;
28311;SDS011;15572;48.810;9.148;2024-03-02T23:26:12;38.50;;;21.67;;
28311;SDS011;15572;48.810;9.148;2024-03-02T23:31:09;43.87;;;22.43;;
28311;SDS011;15572;48.810;9.148;2024-03-02T23:36:06;40.97;;;22.40;;
28311;SDS011;15572;48.810;9.148;2024-03-02T23:41:04;41.03;;;22.13;;
28311;SDS011;15572;48.810;9.148;2024-03-02T23:46:07;42.10;;;22.17;;
28311;SDS011;15572;48.810;9.148;2024-03-02T23:51:05;44.40;;;23.87;;
28311;SDS011;15572;48.810;9.148;2024-03-02T23:56:10;38.00;;;21.83;;
